Time;durP1;ratioP1;P1;durP2;ratioP2;P2;SDS_P1;SDS_P2;PMS_P1;PMS_P2;Temp;Humidity;BMP_temperature;BMP_pressure;BME280_temperature;BME280_humidity;BME280_pressure;Samples;Min_cycle;Max_cycle;Signal;HPM_P1;HPM_P2
2022/05/13 00:01:40;;;;;;;23.63;3.83;;;;;;;;;;5088385;28;20093;-74
2022/05/13 00:04:13;;;;;;;17.58;3.22;;;;;;;;;;5084175;28;20055;-58
2022/05/13 00:06:40;;;;;;;15.07;3.00;;;;;;;;;;5088051;28;20503;-56
2022/05/13 00:09:07;;;;;;;24.63;3.38;;;;;;;;;;5086846;28;20488;-56
2022/05/13 00:11:40;;;;;;;15.50;3.17;;;;;;;;;;5088668;28;20388;-54
2022/05/13 00:14:08;;;;;;;11.27;2.72;;;;;;;;;;5088185;28;20458;-57
2022/05/13 00:16:35;;;;;;;18.83;3.10;;;;;;;;;;5082929;28;20048;-56
2022/05/13 00:19:10;;;;;;;20.55;2.92;;;;;;;;;;5089024;28;20128;-60
2022/05/13 00:21:37;;;;;;;26.08;3.85;;;;;;;;;;5087154;28;20048;-58
2022/05/13 00:24:03;;;;;;;22.75;5.05;;;;;;;;;;5085146;28;20091;-56
2022/05/13 00:26:44;;;;;;;12.60;2.97;;;;;;;;;;5076812;28;20056;-58
2022/05/13 00:29:17;;;;;;;24.05;3.60;;;;;;;;;;5046976;28;20041;-58
2022/05/13 00:31:50;;;;;;;21.63;3.80;;;;;;;;;;5061968;28;20128;-57
2022/05/13 00:34:17;;;;;;;17.42;3.38;;;;;;;;;;5066573;28;20138;-58
2022/05/13 00:36:43;;;;;;;19.42;3.28;;;;;;;;;;5068181;28;20090;-58
2022/05/13 00:39:17;;;;;;;20.23;2.70;;;;;;;;;;5062266;28;20452;-50
2022/05/13 00:41:43;;;;;;;25.65;3.75;;;;;;;;;;5059094;28;20522;-55
2022/05/13 00:44:09;;;;;;;19.95;2.85;;;;;;;;;;5064769;28;20087;-57
2022/05/13 00:46:43;;;;;;;18.05;3.20;;;;;;;;;;5064238;28;20598;-57
2022/05/13 00:49:13;;;;;;;20.25;3.28;;;;;;;;;;5062645;28;20038;-55
2022/05/13 00:51:41;;;;;;;20.73;3.50;;;;;;;;;;5065127;28;20134;-57
2022/05/13 00:54:15;;;;;;;26.80;4.13;;;;;;;;;;5066692;28;20553;-59
2022/05/13 00:56:42;;;;;;;;;;;;;;;;;;5065315;28;20080;-58
2022/05/13 00:59:12;;;;;;;25.10;3.10;;;;;;;;;;5065822;28;19963;-58
2022/05/13 01:01:45;;;;;;;22.13;4.32;;;;;;;;;;5062552;28;20076;-58
2022/05/13 01:04:13;;;;;;;17.77;3.23;;;;;;;;;;5065733;28;20388;-56
2022/05/13 01:06:41;;;;;;;19.30;2.75;;;;;;;;;;5063058;28;20092;-57
2022/05/13 01:09:15;;;;;;;22.95;3.92;;;;;;;;;;5066412;28;20090;-56
2022/05/13 01:11:43;;;;;;;26.83;3.73;;;;;;;;;;5063024;28;20585;-57
2022/05/13 01:14:14;;;;;;;19.95;3.75;;;;;;;;;;5067926;28;20329;-57
2022/05/13 01:19:32;;;;;;;16.42;3.47;;;;;;;;;;5061999;28;20571;-57
2022/05/13 01:22:15;;;;;;;24.77;2.97;;;;;;;;;;5064534;28;20567;-58
2022/05/13 01:24:43;;;;;;;13.40;2.72;;;;;;;;;;5065564;28;20084;-58
2022/05/13 01:27:22;;;;;;;23.33;3.05;;;;;;;;;;5060287;28;20488;-58
2022/05/13 01:29:51;;;;;;;19.15;2.85;;;;;;;;;;5063230;28;20041;-58
2022/05/13 01:32:24;;;;;;;13.95;2.85;;;;;;;;;;5058396;28;20087;-58
2022/05/13 01:34:51;;;;;;;13.90;2.72;;;;;;;;;;5064180;28;20053;-73
2022/05/13 01:37:17;;;;;;;15.88;3.60;;;;;;;;;;5063110;28;20044;-59
2022/05/13 01:39:50;;;;;;;17.65;2.80;;;;;;;;;;5066193;28;20076;-60
2022/05/13 01:42:18;;;;;;;17.88;3.08;;;;;;;;;;5063364;28;20191;-60
2022/05/13 01:44:44;;;;;;;23.85;3.65;;;;;;;;;;5054301;28;20136;-60
2022/05/13 01:47:17;;;;;;;15.75;2.90;;;;;;;;;;5061338;28;20055;-61
2022/05/13 01:49:43;;;;;;;19.00;3.22;;;;;;;;;;5062882;28;20052;-60
2022/05/13 01:52:10;;;;;;;14.13;2.80;;;;;;;;;;5069170;28;20084;-60
2022/05/13 01:54:43;;;;;;;16.17;3.80;;;;;;;;;;5062548;28;20056;-60
2022/05/13 01:57:10;;;;;;;23.42;3.03;;;;;;;;;;5059491;28;20102;-53
2022/05/13 01:59:36;;;;;;;18.20;2.67;;;;;;;;;;5059482;28;20048;-50
2022/05/13 02:02:09;;;;;;;19.67;3.78;;;;;;;;;;5064082;28;20106;-54
2022/05/13 02:04:37;;;;;;;16.13;2.77;;;;;;;;;;5066186;28;20095;-55
2022/05/13 02:07:04;;;;;;;11.90;2.88;;;;;;;;;;5065676;28;20126;-54
2022/05/13 02:09:37;;;;;;;18.90;3.53;;;;;;;;;;5063382;28;20111;-53
2022/05/13 02:12:04;;;;;;;13.00;2.70;;;;;;;;;;5063423;28;20098;-51
2022/05/13 02:14:30;;;;;;;18.85;3.05;;;;;;;;;;5065443;28;20040;-58
2022/05/13 02:17:03;;;;;;;12.23;2.95;;;;;;;;;;5065049;28;20163;-59
2022/05/13 02:19:30;;;;;;;19.33;2.45;;;;;;;;;;5064276;28;20496;-59
2022/05/13 02:21:56;;;;;;;25.20;3.28;;;;;;;;;;5069552;28;20099;-59
2022/05/13 02:24:29;;;;;;;21.98;2.92;;;;;;;;;;5072437;28;20129;-59
2022/05/13 02:27:02;;;;;;;13.70;2.97;;;;;;;;;;5081276;28;20100;-59
2022/05/13 02:29:28;;;;;;;23.17;3.08;;;;;;;;;;5087108;28;20146;-59
2022/05/13 02:32:01;;;;;;;27.02;3.13;;;;;;;;;;5091787;28;20495;-58
2022/05/13 02:34:28;;;;;;;19.42;2.78;;;;;;;;;;5092745;28;20047;-59
2022/05/13 02:36:54;;;;;;;21.98;3.13;;;;;;;;;;5097543;28;20414;-55
2022/05/13 02:39:27;;;;;;;14.82;2.28;;;;;;;;;;5088677;28;20110;-54
2022/05/13 02:41:54;;;;;;;22.30;3.13;;;;;;;;;;5085076;28;20135;-53
2022/05/13 02:44:21;;;;;;;19.80;3.50;;;;;;;;;;5092836;28;20079;-54
2022/05/13 02:46:54;;;;;;;26.10;3.85;;;;;;;;;;5087398;28;20453;-53
2022/05/13 02:49:21;;;;;;;23.25;3.35;;;;;;;;;;5088795;28;20565;-55
2022/05/13 02:51:49;;;;;;;15.98;4.03;;;;;;;;;;5090377;28;20052;-60
2022/05/13 02:54:22;;;;;;;14.23;2.95;;;;;;;;;;5097420;28;20075;-59
2022/05/13 02:56:49;;;;;;;20.65;3.42;;;;;;;;;;5093179;28;20055;-59
2022/05/13 02:59:15;;;;;;;13.32;2.97;;;;;;;;;;5091062;28;20506;-59
2022/05/13 03:01:50;;;;;;;19.80;3.85;;;;;;;;;;5092061;28;20080;-59
2022/05/13 03:04:17;;;;;;;12.77;2.75;;;;;;;;;;5091454;28;20135;-59
2022/05/13 03:06:43;;;;;;;19.05;2.80;;;;;;;;;;5090198;28;20120;-59
2022/05/13 03:09:16;;;;;;;18.90;3.00;;;;;;;;;;5091276;28;20431;-59
2022/05/13 03:11:43;;;;;;;21.20;3.50;;;;;;;;;;5086417;28;20101;-73
2022/05/13 03:14:10;;;;;;;24.95;3.72;;;;;;;;;;5086700;28;20067;-48
2022/05/13 03:16:43;;;;;;;17.45;2.92;;;;;;;;;;5087622;28;20055;-49
2022/05/13 03:19:11;;;;;;;26.83;4.20;;;;;;;;;;5089076;28;20075;-48
2022/05/13 03:21:37;;;;;;;18.90;3.20;;;;;;;;;;5090399;28;20090;-51
2022/05/13 03:24:10;;;;;;;23.80;2.67;;;;;;;;;;5078405;28;20137;-51
2022/05/13 03:26:44;;;;;;;19.02;3.38;;;;;;;;;;5087829;28;20122;-47
2022/05/13 03:29:24;;;;;;;22.88;3.15;;;;;;;;;;5093257;28;20472;-70
2022/05/13 03:31:56;;;;;;;19.17;2.47;;;;;;;;;;5091231;28;20048;-60
2022/05/13 03:34:31;;;;;;;22.90;3.10;;;;;;;;;;5092968;28;20478;-71
2022/05/13 03:36:57;;;;;;;23.70;3.22;;;;;;;;;;5089366;28;20082;-71
2022/05/13 03:39:24;;;;;;;16.17;2.93;;;;;;;;;;5094161;28;20074;-71
2022/05/13 03:41:57;;;;;;;15.70;2.67;;;;;;;;;;5091265;28;20074;-72
2022/05/13 03:44:24;;;;;;;23.05;3.53;;;;;;;;;;5091742;28;20142;-71
2022/05/13 03:46:50;;;;;;;14.60;3.50;;;;;;;;;;5092464;28;20919;-72
2022/05/13 03:49:24;;;;;;;16.67;2.85;;;;;;;;;;5093378;28;20489;-72
2022/05/13 03:51:50;;;;;;;28.05;2.88;;;;;;;;;;5087287;28;20088;-61
2022/05/13 03:54:17;;;;;;;17.30;3.08;;;;;;;;;;5086401;28;20067;-60
2022/05/13 03:56:50;;;;;;;21.30;2.80;;;;;;;;;;5088324;28;20557;-60
2022/05/13 03:59:16;;;;;;;13.23;2.55;;;;;;;;;;5084546;28;20090;-61
2022/05/13 04:01:43;;;;;;;14.00;2.80;;;;;;;;;;5087902;28;20438;-60
2022/05/13 04:04:20;;;;;;;9.98;2.58;;;;;;;;;;5090237;28;20565;-61
2022/05/13 04:09:38;;;;;;;14.20;2.72;;;;;;;;;;5089502;28;20067;-71
2022/05/13 04:17:41;;;;;;;12.73;2.45;;;;;;;;;;5084459;28;20075;-54
2022/05/13 04:20:21;;;;;;;19.35;3.67;;;;;;;;;;5087717;28;20072;-56
2022/05/13 04:22:47;;;;;;;14.13;2.53;;;;;;;;;;5088297;28;20052;-54
2022/05/13 04:25:13;;;;;;;11.98;2.45;;;;;;;;;;5086821;28;20080;-54
2022/05/13 04:27:53;;;;;;;15.32;3.50;;;;;;;;;;5088551;27;20106;-60
2022/05/13 04:30:19;;;;;;;13.23;3.83;;;;;;;;;;5082316;28;20511;-52
2022/05/13 04:32:46;;;;;;;17.50;3.40;;;;;;;;;;5081919;28;20169;-49
2022/05/13 04:35:19;;;;;;;9.75;2.47;;;;;;;;;;5085692;28;20097;-48
2022/05/13 04:37:46;;;;;;;12.45;2.55;;;;;;;;;;5085697;28;20095;-49
2022/05/13 04:40:12;;;;;;;12.63;2.47;;;;;;;;;;5088498;28;20075;-53
2022/05/13 04:42:51;;;;;;;15.18;2.80;;;;;;;;;;5088075;28;20454;-53
2022/05/13 04:45:23;;;;;;;12.38;2.50;;;;;;;;;;5086966;28;20063;-59
2022/05/13 04:48:16;;;;;;;13.60;2.92;;;;;;;;;;5088763;28;20138;-69
2022/05/13 04:50:50;;;;;;;10.73;2.88;;;;;;;;;;5083445;28;20098;-72
2022/05/13 04:53:25;;;;;;;9.35;2.67;;;;;;;;;;5089473;28;20589;-70
2022/05/13 04:55:53;;;;;;;13.35;2.28;;;;;;;;;;5091467;28;20499;-72
2022/05/13 04:58:19;;;;;;;13.35;2.42;;;;;;;;;;5091137;28;20147;-72
2022/05/13 05:00:53;;;;;;;11.95;2.75;;;;;;;;;;5092563;28;20052;-71
2022/05/13 05:03:40;;;;;;;14.00;2.53;;;;;;;;;;5084613;28;20050;-55
2022/05/13 05:06:14;;;;;;;10.38;2.25;;;;;;;;;;5088815;28;20087;-60
2022/05/13 05:08:41;;;;;;;17.23;2.63;;;;;;;;;;5087947;28;20052;-58
2022/05/13 05:11:08;;;;;;;15.18;2.92;;;;;;;;;;5089793;28;20516;-58
2022/05/13 05:13:42;;;;;;;15.55;2.95;;;;;;;;;;5085383;28;20107;-57
2022/05/13 05:16:09;;;;;;;12.88;2.00;;;;;;;;;;5086170;28;20590;-55
2022/05/13 05:18:36;;;;;;;9.00;2.63;;;;;;;;;;5086089;28;20066;-57
2022/05/13 05:21:10;;;;;;;11.45;2.58;;;;;;;;;;5082059;28;20056;-57
2022/05/13 05:23:38;;;;;;;17.70;2.70;;;;;;;;;;5090855;28;20442;-59
2022/05/13 05:26:04;;;;;;;10.43;2.13;;;;;;;;;;5089751;28;20572;-58
2022/05/13 05:28:44;;;;;;;14.07;3.10;;;;;;;;;;5069453;28;20048;-60
2022/05/13 05:31:13;;;;;;;11.02;2.25;;;;;;;;;;5069069;28;20458;-60
2022/05/13 05:33:46;;;;;;;9.60;2.10;;;;;;;;;;5067497;28;20036;-60
2022/05/13 05:36:13;;;;;;;10.48;2.30;;;;;;;;;;5067182;28;20134;-60
2022/05/13 05:38:39;;;;;;;10.55;2.60;;;;;;;;;;5074161;28;20083;-60
2022/05/13 05:41:12;;;;;;;14.68;2.40;;;;;;;;;;5068145;28;20130;-59
2022/05/13 05:43:39;;;;;;;13.75;2.42;;;;;;;;;;5069467;28;20443;-60
2022/05/13 05:46:05;;;;;;;14.35;2.60;;;;;;;;;;5065379;28;20095;-70
2022/05/13 05:48:38;;;;;;;13.40;2.80;;;;;;;;;;5071085;28;20076;-70
2022/05/13 05:51:05;;;;;;;18.13;2.60;;;;;;;;;;5073331;28;20045;-70
2022/05/13 05:59:09;;;;;;;10.85;2.03;;;;;;;;;;5069954;28;20044;-70
2022/05/13 06:01:42;;;;;;;19.98;2.90;;;;;;;;;;5070390;28;20044;-47
2022/05/13 06:04:15;;;;;;;18.17;2.78;;;;;;;;;;5073015;28;20499;-52
2022/05/13 06:06:42;;;;;;;10.38;2.83;;;;;;;;;;5072599;28;20207;-46
2022/05/13 06:09:16;;;;;;;12.75;2.97;;;;;;;;;;5072804;28;20099;-51
2022/05/13 06:11:42;;;;;;;17.20;3.08;;;;;;;;;;5071951;28;20040;-50
2022/05/13 06:14:11;;;;;;;15.05;2.70;;;;;;;;;;5074474;28;20553;-51
2022/05/13 06:16:46;;;;;;;12.38;2.47;;;;;;;;;;5070546;28;20087;-51
2022/05/13 06:19:13;;;;;;;10.27;2.35;;;;;;;;;;5070671;28;20044;-48
2022/05/13 06:21:39;;;;;;;13.25;3.13;;;;;;;;;;5071731;28;20484;-55
2022/05/13 06:24:12;;;;;;;14.73;2.47;;;;;;;;;;5071980;28;20498;-52
2022/05/13 06:26:48;;;;;;;12.10;2.70;;;;;;;;;;5071313;28;20095;-49
2022/05/13 06:29:28;;;;;;;14.52;3.55;;;;;;;;;;5088942;28;20071;-49
2022/05/13 06:31:54;;;;;;;12.82;2.40;;;;;;;;;;5089036;28;20099;-46
2022/05/13 06:34:22;;;;;;;13.88;2.33;;;;;;;;;;5087888;28;20048;-51
2022/05/13 06:36:55;;;;;;;11.95;2.80;;;;;;;;;;5091015;28;20102;-49
2022/05/13 06:39:22;;;;;;;10.77;1.98;;;;;;;;;;5089659;28;20095;-56
2022/05/13 06:41:48;;;;;;;10.68;2.45;;;;;;;;;;5089550;28;20102;-69
2022/05/13 06:44:21;;;;;;;11.10;2.45;;;;;;;;;;5086354;28;20404;-55
2022/05/13 06:46:48;;;;;;;15.75;3.10;;;;;;;;;;5086268;28;20140;-57
2022/05/13 06:49:14;;;;;;;9.23;2.13;;;;;;;;;;5095425;28;20139;-54
2022/05/13 06:51:47;;;;;;;14.13;2.38;;;;;;;;;;5094554;28;20475;-57
2022/05/13 06:54:14;;;;;;;12.45;2.53;;;;;;;;;;5089722;28;20078;-56
2022/05/13 06:56:41;;;;;;;16.73;2.90;;;;;;;;;;5096653;28;20075;-57
2022/05/13 06:59:14;;;;;;;17.23;2.90;;;;;;;;;;5093082;28;20079;-55
2022/05/13 07:01:41;;;;;;;12.98;2.40;;;;;;;;;;5091408;28;20127;-59
2022/05/13 07:04:07;;;;;;;18.03;3.00;;;;;;;;;;5087969;28;20075;-59
2022/05/13 07:06:41;;;;;;;16.00;3.35;;;;;;;;;;5092687;28;20056;-58
2022/05/13 07:09:07;;;;;;;10.75;2.65;;;;;;;;;;5095574;28;20580;-59
2022/05/13 07:11:34;;;;;;;9.40;1.87;;;;;;;;;;5091116;28;20084;-59
2022/05/13 07:14:07;;;;;;;17.13;2.80;;;;;;;;;;5092040;28;20097;-59
2022/05/13 07:16:34;;;;;;;11.02;2.30;;;;;;;;;;5093850;28;20102;-59
2022/05/13 07:19:03;;;;;;;17.75;3.13;;;;;;;;;;5092627;28;20127;-60
2022/05/13 07:21:37;;;;;;;10.85;2.50;;;;;;;;;;5084855;28;20159;-61
2022/05/13 07:24:03;;;;;;;15.88;3.67;;;;;;;;;;5091191;28;20124;-60
2022/05/13 07:26:30;;;;;;;11.82;2.60;;;;;;;;;;5096074;28;20047;-61
2022/05/13 07:29:09;;;;;;;15.48;2.60;;;;;;;;;;5089767;28;20495;-60
2022/05/13 07:31:35;;;;;;;20.75;3.50;;;;;;;;;;5088774;28;20087;-60
2022/05/13 07:34:02;;;;;;;12.68;2.80;;;;;;;;;;5090320;28;20052;-61
2022/05/13 07:36:35;;;;;;;15.10;2.60;;;;;;;;;;5087228;28;20576;-50
2022/05/13 07:41:54;;;;;;;7.50;2.15;;;;;;;;;;5089950;28;20044;-57
2022/05/13 07:44:21;;;;;;;10.30;2.78;;;;;;;;;;5093451;28;20048;-57
2022/05/13 07:46:47;;;;;;;12.37;3.17;;;;;;;;;;5092055;28;20043;-58
2022/05/13 07:49:20;;;;;;;15.50;2.70;;;;;;;;;;5090431;28;20078;-56
2022/05/13 07:51:47;;;;;;;11.23;2.33;;;;;;;;;;5089976;28;20072;-56
2022/05/13 07:54:13;;;;;;;12.15;3.00;;;;;;;;;;5090755;28;20503;-57
2022/05/13 07:56:46;;;;;;;13.43;3.05;;;;;;;;;;5087997;28;20075;-55
2022/05/13 07:59:13;;;;;;;10.23;2.40;;;;;;;;;;5093083;28;20082;-58
2022/05/13 08:01:39;;;;;;;15.57;2.78;;;;;;;;;;5095458;28;20113;-59
2022/05/13 08:04:13;;;;;;;9.35;2.70;;;;;;;;;;5094268;28;20069;-59
2022/05/13 08:06:39;;;;;;;16.85;3.08;;;;;;;;;;5094226;28;20071;-58
2022/05/13 08:09:06;;;;;;;22.73;3.13;;;;;;;;;;5089695;28;20083;-59
2022/05/13 08:11:39;;;;;;;15.07;2.40;;;;;;;;;;5088672;28;20044;-58
2022/05/13 08:14:06;;;;;;;9.07;2.30;;;;;;;;;;5086201;28;20075;-58
2022/05/13 08:16:35;;;;;;;17.75;2.60;;;;;;;;;;5085040;28;20486;-59
2022/05/13 08:19:08;;;;;;;10.75;2.97;;;;;;;;;;5090878;28;20267;-54
2022/05/13 08:21:34;;;;;;;18.13;3.13;;;;;;;;;;5092969;28;20481;-56
2022/05/13 08:24:01;;;;;;;15.17;2.23;;;;;;;;;;5090467;28;20052;-56
2022/05/13 08:26:49;;;;;;;10.35;2.53;;;;;;;;;;5085307;28;20119;-56
2022/05/13 08:29:36;;;;;;;15.32;2.83;;;;;;;;;;5066269;28;20476;-54
2022/05/13 08:32:09;;;;;;;15.52;3.05;;;;;;;;;;5068772;28;20076;-56
2022/05/13 08:34:37;;;;;;;13.02;2.63;;;;;;;;;;5069594;28;20045;-60
2022/05/13 08:37:24;;;;;;;12.48;2.80;;;;;;;;;;5069291;28;20582;-50
2022/05/13 08:40:00;;;;;;;8.55;2.28;;;;;;;;;;5069919;28;20165;-52
2022/05/13 08:42:36;;;;;;;8.10;2.40;;;;;;;;;;5068170;28;20106;-52
2022/05/13 08:45:10;;;;;;;11.48;2.92;;;;;;;;;;5064780;28;20036;-54
2022/05/13 08:47:37;;;;;;;;;;;;;;;;;;5069566;28;20139;-53
2022/05/13 08:50:04;;;;;;;9.18;2.45;;;;;;;;;;5067285;28;19931;-53
2022/05/13 08:55:36;;;;;;;14.02;2.90;;;;;;;;;;5066241;28;20518;-61
2022/05/13 08:58:11;;;;;;;11.93;2.40;;;;;;;;;;5068238;28;20052;-61
2022/05/13 09:00:40;;;;;;;9.15;2.35;;;;;;;;;;5067551;28;20052;-60
2022/05/13 09:03:13;;;;;;;8.90;2.40;;;;;;;;;;5063326;28;20044;-61
2022/05/13 09:05:53;;;;;;;10.82;2.60;;;;;;;;;;5065630;28;20127;-61
2022/05/13 09:08:20;;;;;;;11.88;2.28;;;;;;;;;;5067042;28;20129;-61
2022/05/13 09:10:58;;;;;;;11.05;2.72;;;;;;;;;;5067829;28;20076;-61
2022/05/13 09:13:29;;;;;;;12.45;2.55;;;;;;;;;;5066081;28;20071;-75
2022/05/13 09:16:04;;;;;;;7.50;2.28;;;;;;;;;;5070837;28;20082;-48
2022/05/13 09:18:41;;;;;;;8.52;2.30;;;;;;;;;;5070003;28;20052;-49
2022/05/13 09:21:16;;;;;;;9.10;2.63;;;;;;;;;;5065130;28;20048;-49
2022/05/13 09:23:43;;;;;;;11.43;2.45;;;;;;;;;;5068173;28;20053;-52
2022/05/13 09:26:13;;;;;;;9.68;2.70;;;;;;;;;;5066423;28;20478;-49
2022/05/13 09:29:10;;;;;;;10.45;2.78;;;;;;;;;;5075781;28;20084;-47
2022/05/13 09:31:41;;;;;;;10.02;2.35;;;;;;;;;;5082319;28;20048;-47
2022/05/13 09:34:27;;;;;;;7.80;2.30;;;;;;;;;;5087678;28;20052;-59
2022/05/13 09:37:11;;;;;;;7.63;2.08;;;;;;;;;;5084967;28;20115;-58
2022/05/13 09:39:45;;;;;;;8.13;2.38;;;;;;;;;;5088038;28;20559;-59
2022/05/13 09:42:20;;;;;;;9.27;2.30;;;;;;;;;;5083545;28;20247;-59
2022/05/13 09:45:14;;;;;;;9.20;3.00;;;;;;;;;;5087361;28;20040;-59
2022/05/13 09:47:41;;;;;;;8.48;1.92;;;;;;;;;;5088428;28;20105;-59
2022/05/13 09:50:34;;;;;;;9.18;1.92;;;;;;;;;;5089285;28;20040;-55
2022/05/13 09:53:02;;;;;;;9.02;2.00;;;;;;;;;;5089045;28;20082;-60
2022/05/13 09:55:37;;;;;;;15.02;2.72;;;;;;;;;;5091270;28;20094;-61
2022/05/13 09:58:05;;;;;;;9.07;2.50;;;;;;;;;;5090121;28;20044;-61
2022/05/13 10:00:35;;;;;;;9.93;2.78;;;;;;;;;;5089112;28;20056;-60
2022/05/13 10:03:17;;;;;;;12.40;2.73;;;;;;;;;;5090787;28;20056;-61
2022/05/13 10:05:45;;;;;;;9.45;2.45;;;;;;;;;;5088335;28;20640;-61
2022/05/13 10:08:22;;;;;;;11.23;2.13;;;;;;;;;;5086665;28;20162;-61
2022/05/13 10:14:04;;;;;;;9.40;2.90;;;;;;;;;;5085460;28;20090;-51
2022/05/13 10:16:43;;;;;;;13.70;2.95;;;;;;;;;;5090701;28;20076;-51
2022/05/13 10:19:19;;;;;;;10.27;2.33;;;;;;;;;;5087561;28;20523;-48
2022/05/13 10:21:48;;;;;;;11.60;2.28;;;;;;;;;;5091204;28;20463;-51
2022/05/13 10:24:33;;;;;;;11.20;2.10;;;;;;;;;;5090226;28;20056;-47
2022/05/13 10:27:08;;;;;;;6.85;2.20;;;;;;;;;;5085658;28;20048;-46
2022/05/13 10:29:47;;;;;;;9.45;2.33;;;;;;;;;;5089708;28;20082;-58
2022/05/13 10:32:33;;;;;;;13.60;3.10;;;;;;;;;;5088453;28;20573;-57
2022/05/13 10:35:04;;;;;;;16.00;2.78;;;;;;;;;;5090771;28;20087;-56
2022/05/13 10:37:49;;;;;;;8.02;2.10;;;;;;;;;;5095150;28;20071;-56
2022/05/13 10:40:17;;;;;;;11.57;2.33;;;;;;;;;;5090891;28;20093;-55
2022/05/13 10:43:02;;;;;;;16.42;2.55;;;;;;;;;;5089652;28;20084;-57
2022/05/13 10:45:30;;;;;;;;;;;;;;;;;;5091915;28;20060;-56
2022/05/13 10:48:05;;;;;;;6.70;2.33;;;;;;;;;;5093309;28;19924;-57
2022/05/13 10:50:32;;;;;;;;;;;;;;;;;;5092203;28;20550;-60
2022/05/13 10:53:18;;;;;;;7.55;2.08;;;;;;;;;;5090248;28;19920;-61
2022/05/13 10:56:10;;;;;;;6.97;1.80;;;;;;;;;;5087788;28;20579;-61
2022/05/13 10:58:55;;;;;;;11.73;2.08;;;;;;;;;;5094891;28;20464;-61
2022/05/13 11:01:40;;;;;;;11.27;2.05;;;;;;;;;;5094436;28;20048;-62
2022/05/13 11:04:06;;;;;;;9.70;2.20;;;;;;;;;;5097550;28;20410;-61
2022/05/13 11:07:00;;;;;;;7.88;2.10;;;;;;;;;;5095704;28;20567;-52
2022/05/13 11:09:32;;;;;;;6.97;2.10;;;;;;;;;;5095225;28;20109;-60
2022/05/13 11:12:13;;;;;;;6.60;2.10;;;;;;;;;;5091378;28;20076;-59
2022/05/13 11:14:42;;;;;;;7.75;2.20;;;;;;;;;;5090963;28;20230;-60
2022/05/13 11:17:21;;;;;;;7.05;2.03;;;;;;;;;;5090671;28;20098;-61
2022/05/13 11:20:10;;;;;;;12.30;2.50;;;;;;;;;;5094489;28;20083;-60
2022/05/13 11:22:47;;;;;;;10.15;2.20;;;;;;;;;;5092311;28;20113;-60
2022/05/13 11:28:27;;;;;;;8.30;2.42;;;;;;;;;;5091912;28;20064;-60
2022/05/13 11:31:16;;;;;;;13.10;2.65;;;;;;;;;;5090796;28;20408;-60
2022/05/13 11:34:08;;;;;;;16.25;2.75;;;;;;;;;;5085094;28;20105;-60
2022/05/13 11:36:55;;;;;;;16.85;2.88;;;;;;;;;;5088518;28;20052;-61
2022/05/13 11:39:47;;;;;;;9.10;2.50;;;;;;;;;;5089188;28;20502;-61
2022/05/13 11:42:29;;;;;;;12.70;2.28;;;;;;;;;;5072607;28;20049;-60
2022/05/13 11:45:17;;;;;;;10.55;2.80;;;;;;;;;;5090514;28;20056;-58
2022/05/13 11:47:56;;;;;;;7.13;2.45;;;;;;;;;;5089557;28;20055;-53
2022/05/13 11:50:31;;;;;;;8.85;2.67;;;;;;;;;;5088786;28;20052;-52
2022/05/13 11:52:57;;;;;;;;;;;;;;;;;;5093927;28;20101;-53
2022/05/13 11:55:29;;;;;;;11.85;2.33;;;;;;;;;;5085302;28;19927;-49
2022/05/13 11:58:02;;;;;;;10.57;2.70;;;;;;;;;;5091777;28;20044;-53
2022/05/13 12:00:38;;;;;;;12.15;3.38;;;;;;;;;;5093200;28;20504;-53
2022/05/13 12:03:14;;;;;;;9.20;2.90;;;;;;;;;;5094075;28;20083;-72
2022/05/13 12:06:01;;;;;;;12.50;2.92;;;;;;;;;;5091026;28;20075;-61
2022/05/13 12:08:43;;;;;;;6.22;2.58;;;;;;;;;;5086130;28;20388;-60
2022/05/13 12:11:15;;;;;;;15.63;2.95;;;;;;;;;;5089496;28;20083;-61
2022/05/13 12:14:00;;;;;;;12.25;3.17;;;;;;;;;;5089442;28;20078;-61
2022/05/13 12:16:49;;;;;;;11.43;3.05;;;;;;;;;;5086562;28;20502;-61
2022/05/13 12:19:40;;;;;;;9.40;2.65;;;;;;;;;;5088611;28;20476;-61
2022/05/13 12:22:18;;;;;;;10.23;2.90;;;;;;;;;;5092015;28;20475;-74
2022/05/13 12:24:54;;;;;;;17.33;3.10;;;;;;;;;;5086986;28;20466;-58
2022/05/13 12:27:47;;;;;;;13.38;3.38;;;;;;;;;;5093241;28;20043;-59
2022/05/13 12:30:29;;;;;;;;;;;;;;;;;;5055629;28;20084;-59
2022/05/13 12:32:56;;;;;;;9.25;2.72;;;;;;;;;;5069260;28;19927;-59
2022/05/13 12:38:23;;;;;;;11.95;2.97;;;;;;;;;;5068812;28;20082;-59
2022/05/13 12:41:09;;;;;;;11.00;3.05;;;;;;;;;;5065281;28;20130;-58
2022/05/13 12:43:47;;;;;;;12.57;2.83;;;;;;;;;;5068374;28;20145;-61
2022/05/13 12:46:39;;;;;;;12.43;3.03;;;;;;;;;;5070418;28;20491;-73
2022/05/13 12:49:09;;;;;;;14.70;2.67;;;;;;;;;;5067363;28;20098;-74
2022/05/13 12:52:05;;;;;;;11.57;3.15;;;;;;;;;;5071395;28;20052;-73
2022/05/13 12:54:52;;;;;;;12.15;2.78;;;;;;;;;;5039969;28;20060;-74
2022/05/13 12:57:30;;;;;;;13.32;2.75;;;;;;;;;;5070587;28;20121;-74
2022/05/13 13:00:06;;;;;;;11.68;3.03;;;;;;;;;;5066834;28;20052;-60
2022/05/13 13:02:41;;;;;;;10.93;2.60;;;;;;;;;;5068686;28;20114;-58
2022/05/13 13:05:12;;;;;;;9.95;2.53;;;;;;;;;;5068970;28;20381;-58
2022/05/13 13:07:39;;;;;;;9.93;2.67;;;;;;;;;;5070234;28;20049;-59
2022/05/13 13:10:17;;;;;;;12.07;2.75;;;;;;;;;;5066958;28;20064;-59
2022/05/13 13:12:52;;;;;;;13.88;3.00;;;;;;;;;;5066219;28;20145;-58
2022/05/13 13:15:40;;;;;;;7.60;2.28;;;;;;;;;;5066126;28;20048;-58
2022/05/13 13:18:09;;;;;;;12.18;2.78;;;;;;;;;;5064195;28;20052;-58
2022/05/13 13:20:49;;;;;;;8.95;2.42;;;;;;;;;;5064914;28;20080;-73
2022/05/13 13:23:16;;;;;;;19.00;2.50;;;;;;;;;;5066112;28;20037;-58
2022/05/13 13:25:50;;;;;;;11.18;2.42;;;;;;;;;;5068423;28;20453;-57
2022/05/13 13:28:36;;;;;;;11.30;3.03;;;;;;;;;;5074037;28;20693;-57
2022/05/13 13:31:11;;;;;;;12.75;2.67;;;;;;;;;;5090107;28;20047;-58
2022/05/13 13:33:44;;;;;;;13.45;2.53;;;;;;;;;;5090114;28;20442;-57
2022/05/13 13:36:19;;;;;;;9.98;2.70;;;;;;;;;;5090678;28;20044;-57
2022/05/13 13:38:49;;;;;;;10.10;2.55;;;;;;;;;;5089696;28;20048;-58
2022/05/13 13:41:26;;;;;;;7.63;2.53;;;;;;;;;;5091254;28;20400;-61
2022/05/13 13:44:01;;;;;;;10.30;2.75;;;;;;;;;;5088222;28;20087;-59
2022/05/13 13:46:41;;;;;;;7.10;2.13;;;;;;;;;;5092092;28;20526;-57
2022/05/13 13:49:18;;;;;;;9.27;2.70;;;;;;;;;;5077682;28;20079;-57
2022/05/13 13:51:52;;;;;;;9.13;2.30;;;;;;;;;;5078663;28;20446;-57
2022/05/13 13:54:27;;;;;;;10.90;2.75;;;;;;;;;;5091330;28;20490;-57
2022/05/13 13:57:01;;;;;;;10.65;2.80;;;;;;;;;;5089233;28;20133;-57
2022/05/13 13:59:40;;;;;;;19.20;3.67;;;;;;;;;;5090250;28;20082;-54
2022/05/13 14:02:06;;;;;;;8.95;2.50;;;;;;;;;;5089678;28;20538;-73
2022/05/13 14:04:33;;;;;;;12.67;2.60;;;;;;;;;;5096277;28;20117;-73
2022/05/13 14:07:08;;;;;;;15.10;3.03;;;;;;;;;;5088836;28;20309;-73
2022/05/13 14:09:42;;;;;;;10.32;3.33;;;;;;;;;;5095718;28;20040;-73
2022/05/13 14:12:17;;;;;;;13.32;3.75;;;;;;;;;;5094652;28;20052;-73
2022/05/13 14:15:03;;;;;;;11.77;2.78;;;;;;;;;;5094038;28;20125;-73
2022/05/13 14:17:37;;;;;;;15.35;3.10;;;;;;;;;;5090479;28;20052;-61
2022/05/13 14:20:08;;;;;;;14.32;3.25;;;;;;;;;;5097058;28;20515;-59
2022/05/13 14:22:53;;;;;;;13.73;3.85;;;;;;;;;;5092377;28;21119;-61
2022/05/13 14:25:34;;;;;;;15.35;4.00;;;;;;;;;;5092120;28;20068;-61
2022/05/13 14:28:13;;;;;;;17.50;4.57;;;;;;;;;;5094352;28;20411;-61
2022/05/13 14:30:58;;;;;;;17.02;4.20;;;;;;;;;;5087608;28;20102;-61
2022/05/13 14:33:28;;;;;;;14.82;4.00;;;;;;;;;;5091882;28;20048;-61
2022/05/13 14:36:03;;;;;;;17.75;5.35;;;;;;;;;;5094184;28;20090;-59
2022/05/13 14:39:48;;;;;;;19.08;4.25;;;;;;;;;;5092046;28;21253;-53
2022/05/13 14:41:41;;;;;;;19.77;4.30;;;;;;;;;;5079168;28;20051;-52
2022/05/13 14:44:08;;;;;;;;;;;;;;;;;;5096753;28;20554;-52
2022/05/13 14:46:52;;;;;;;13.13;3.53;;;;;;;;;;5098864;28;19920;-49
2022/05/13 14:49:19;;;;;;;;;;;;;;;;;;5092765;28;20098;-47
2022/05/13 14:51:54;;;;;;;9.48;2.60;;;;;;;;;;5093819;28;19920;-51
2022/05/13 14:54:23;;;;;;;17.85;3.78;;;;;;;;;;5091958;28;20083;-51
2022/05/13 14:56:54;;;;;;;4.97;2.42;;;;;;;;;;5090659;28;20144;-57
2022/05/13 14:59:42;;;;;;;10.23;2.63;;;;;;;;;;5094867;28;20075;-57
2022/05/13 15:02:29;;;;;;;8.88;2.55;;;;;;;;;;5092233;28;20077;-54
2022/05/13 15:05:21;;;;;;;8.05;2.47;;;;;;;;;;5092076;28;20075;-55
2022/05/13 15:07:50;;;;;;;11.45;2.35;;;;;;;;;;5094815;28;20054;-56
2022/05/13 15:10:24;;;;;;;12.05;3.30;;;;;;;;;;5090872;28;20130;-54
2022/05/13 15:12:51;;;;;;;7.43;2.38;;;;;;;;;;5089634;28;20040;-56
2022/05/13 15:15:18;;;;;;;7.07;2.28;;;;;;;;;;5091347;28;20075;-63
2022/05/13 15:17:53;;;;;;;12.93;2.95;;;;;;;;;;5094230;28;20488;-58
2022/05/13 15:20:21;;;;;;;9.65;2.63;;;;;;;;;;5093789;28;20135;-57
2022/05/13 15:22:47;;;;;;;10.02;3.40;;;;;;;;;;5092929;28;20079;-58
2022/05/13 15:25:32;;;;;;;5.93;2.22;;;;;;;;;;5089407;28;20079;-58
2022/05/13 15:28:05;;;;;;;14.50;3.00;;;;;;;;;;5089282;28;20052;-58
2022/05/13 15:30:45;;;;;;;8.23;2.13;;;;;;;;;;5068775;28;20048;-58
2022/05/13 15:33:12;;;;;;;7.32;2.30;;;;;;;;;;5069009;28;20051;-55
2022/05/13 15:35:38;;;;;;;14.48;2.53;;;;;;;;;;5067473;28;20492;-50
2022/05/13 15:38:12;;;;;;;7.22;2.10;;;;;;;;;;5068208;28;20092;-59
2022/05/13 15:40:38;;;;;;;11.23;2.60;;;;;;;;;;5067927;28;20080;-59
2022/05/13 15:43:05;;;;;;;5.93;1.95;;;;;;;;;;5069516;28;20080;-59